createdAt,value
2024-04-10T00:00:13.973Z,14.10
2024-04-10T00:02:43.622Z,14.80
2024-04-10T00:05:10.793Z,14.02
2024-04-10T00:07:37.425Z,9.82
2024-04-10T00:10:04.702Z,15.75
2024-04-10T00:12:31.338Z,12.07
2024-04-10T00:14:57.880Z,11.27
2024-04-10T00:17:28.214Z,13.55
2024-04-10T00:19:54.875Z,15.93
2024-04-10T00:22:21.481Z,11.13
2024-04-10T00:24:47.966Z,13.32
2024-04-10T00:27:16.364Z,12.65
2024-04-10T00:29:42.837Z,14.30
2024-04-10T00:32:09.591Z,9.23
2024-04-10T00:34:36.629Z,13.88
2024-04-10T00:37:03.526Z,9.23
2024-04-10T00:39:30.045Z,15.32
2024-04-10T00:41:56.517Z,13.32
2024-04-10T00:44:23.027Z,11.43
2024-04-10T00:46:49.626Z,8.35
2024-04-10T00:49:16.442Z,14.70
2024-04-10T00:51:43.659Z,12.27
2024-04-10T00:54:10.758Z,19.92
2024-04-10T00:56:37.289Z,13.77
2024-04-10T00:59:03.983Z,12.65
2024-04-10T01:01:30.562Z,11.27
2024-04-10T01:03:57.231Z,17.70
2024-04-10T01:06:30.457Z,11.57
2024-04-10T01:08:56.981Z,13.75
2024-04-10T01:11:23.673Z,8.55
2024-04-10T01:13:50.940Z,8.48
2024-04-10T01:16:17.751Z,14.20
2024-04-10T01:18:44.392Z,13.40
2024-04-10T01:21:10.899Z,11.48
2024-04-10T01:23:37.501Z,13.77
2024-04-10T01:26:04.242Z,16.25
2024-04-10T01:28:30.760Z,13.63
2024-04-10T01:30:57.216Z,13.68
2024-04-10T01:33:25.668Z,13.30
2024-04-10T01:38:18.805Z,18.33
2024-04-10T01:40:45.376Z,11.63
2024-04-10T01:43:11.903Z,8.25
2024-04-10T01:45:39.312Z,10.57
2024-04-10T01:48:06.135Z,14.25
2024-04-10T01:51:48.949Z,9.68
2024-04-10T01:54:15.468Z,18.15
2024-04-10T01:56:42.021Z,11.27
2024-04-10T01:59:08.650Z,10.55
2024-04-10T02:01:36.241Z,13.38
2024-04-10T02:04:02.764Z,10.02
2024-04-10T02:06:29.322Z,10.70
2024-04-10T02:08:55.780Z,8.88
2024-04-10T02:11:28.304Z,6.57
2024-04-10T02:13:55.010Z,9.80
2024-04-10T02:16:23.462Z,12.60
2024-04-10T02:18:50.167Z,9.90
2024-04-10T02:21:18.215Z,11.73
2024-04-10T02:23:44.786Z,15.68
2024-04-10T02:26:11.683Z,16.92
2024-04-10T02:28:38.219Z,6.70
2024-04-10T02:31:04.916Z,11.18
2024-04-10T02:33:39.185Z,9.55
2024-04-10T02:36:06.269Z,13.05
2024-04-10T02:38:34.392Z,10.15
2024-04-10T02:41:01.275Z,12.60
2024-04-10T02:43:27.978Z,14.68
2024-04-10T02:45:58.174Z,7.95
2024-04-10T02:48:24.950Z,15.07
2024-04-10T02:50:51.637Z,10.30
2024-04-10T02:53:18.492Z,13.15
2024-04-10T02:55:49.907Z,12.52
2024-04-10T02:58:16.888Z,12.98
2024-04-10T03:00:47.219Z,8.95
2024-04-10T03:03:14.075Z,11.88
2024-04-10T03:05:40.872Z,12.38
2024-04-10T03:08:07.789Z,13.63
2024-04-10T03:10:34.363Z,12.70
2024-04-10T03:13:00.812Z,12.63
2024-04-10T03:15:27.251Z,11.98
2024-04-10T03:17:55.291Z,13.82
2024-04-10T03:20:22.391Z,9.90
2024-04-10T03:22:49.029Z,12.77
2024-04-10T03:25:15.803Z,12.35
2024-04-10T03:27:42.649Z,11.93
2024-04-10T03:30:09.333Z,10.38
2024-04-10T03:32:35.959Z,14.57
2024-04-10T03:35:02.464Z,12.93
2024-04-10T03:37:32.504Z,12.73
2024-04-10T03:39:58.969Z,10.70
2024-04-10T03:42:25.506Z,13.02
2024-04-10T03:44:51.940Z,12.68
2024-04-10T03:47:19.089Z,11.40
2024-04-10T03:49:45.595Z,11.75
2024-04-10T03:52:12.079Z,11.20
2024-04-10T03:54:38.576Z,16.95
2024-04-10T03:57:05.149Z,10.35
2024-04-10T03:59:31.667Z,13.82
2024-04-10T04:01:58.238Z,10.02
2024-04-10T04:04:25.048Z,11.43
2024-04-10T04:06:51.929Z,13.60
2024-04-10T04:09:18.700Z,8.65
2024-04-10T04:11:45.240Z,11.77
2024-04-10T04:14:11.830Z,14.88
2024-04-10T04:16:38.374Z,11.30
2024-04-10T04:19:05.129Z,11.80
2024-04-10T04:21:32.843Z,9.43
2024-04-10T04:23:59.585Z,12.77
2024-04-10T04:26:26.354Z,10.77
2024-04-10T04:28:54.112Z,14.48
2024-04-10T04:31:20.643Z,12.20
2024-04-10T04:33:47.415Z,13.10
2024-04-10T04:36:14.379Z,11.25
2024-04-10T04:38:40.939Z,13.50
2024-04-10T04:41:07.541Z,15.05
2024-04-10T04:43:34.125Z,11.70
2024-04-10T04:46:02.103Z,10.60
2024-04-10T04:48:28.592Z,12.80
2024-04-10T04:50:56.420Z,12.80
2024-04-10T04:53:23.142Z,11.05
2024-04-10T04:55:49.709Z,13.55
2024-04-10T04:58:16.226Z,10.90
2024-04-10T05:00:43.266Z,17.85
2024-04-10T05:03:32.725Z,12.40
2024-04-10T05:05:59.382Z,14.07
2024-04-10T05:08:25.864Z,12.38
2024-04-10T05:10:52.482Z,13.25
2024-04-10T05:13:19.568Z,8.82
2024-04-10T05:15:46.329Z,12.73
2024-04-10T05:18:12.907Z,14.48
2024-04-10T05:20:39.641Z,12.73
2024-04-10T05:23:06.242Z,11.10
2024-04-10T05:25:32.689Z,11.60
2024-04-10T05:27:59.155Z,11.25
2024-04-10T05:30:25.598Z,11.73
2024-04-10T05:32:52.361Z,9.50
2024-04-10T05:35:19.145Z,9.30
2024-04-10T05:37:45.690Z,15.05
2024-04-10T05:40:15.592Z,14.00
2024-04-10T05:42:42.864Z,11.98
2024-04-10T05:45:10.531Z,9.63
2024-04-10T05:47:37.958Z,11.60
2024-04-10T05:50:04.743Z,13.82
2024-04-10T05:52:31.597Z,16.27
2024-04-10T05:54:58.042Z,14.52
2024-04-10T05:57:25.772Z,11.65
2024-04-10T05:59:52.847Z,12.20
2024-04-10T06:02:19.391Z,16.27
2024-04-10T06:04:45.991Z,11.95
2024-04-10T06:07:12.510Z,14.20
2024-04-10T06:09:38.989Z,9.77
2024-04-10T06:12:05.707Z,13.85
2024-04-10T06:14:32.378Z,13.18
2024-04-10T06:16:58.896Z,14.20
2024-04-10T06:19:25.831Z,13.73
2024-04-10T06:21:52.305Z,16.85
2024-04-10T06:24:20.283Z,12.02
2024-04-10T06:26:46.790Z,9.50
2024-04-10T06:29:13.292Z,14.02
2024-04-10T06:31:41.258Z,9.80
2024-04-10T06:34:08.193Z,20.83
2024-04-10T06:36:34.733Z,11.85
2024-04-10T06:39:01.257Z,14.40
2024-04-10T06:41:27.794Z,12.00
2024-04-10T06:43:54.338Z,13.88
2024-04-10T06:46:20.844Z,15.82
2024-04-10T06:48:47.521Z,6.78
2024-04-10T06:51:14.158Z,10.25
2024-04-10T06:53:40.638Z,15.75
2024-04-10T06:56:13.219Z,10.02
2024-04-10T06:58:39.823Z,13.18
2024-04-10T07:01:07.315Z,11.95
2024-04-10T07:03:38.272Z,13.68
2024-04-10T07:06:11.995Z,8.68
2024-04-10T07:08:43.578Z,13.77
2024-04-10T07:11:21.455Z,10.88
2024-04-10T07:13:52.357Z,13.43
2024-04-10T07:16:19.414Z,13.43
2024-04-10T07:18:46.126Z,14.50
2024-04-10T07:21:13.552Z,14.63
2024-04-10T07:23:41.428Z,12.45
2024-04-10T07:26:09.902Z,13.18
2024-04-10T07:28:36.764Z,11.10
2024-04-10T07:31:03.617Z,9.02
2024-04-10T07:33:30.176Z,14.93
2024-04-10T07:35:56.770Z,14.15
2024-04-10T07:38:23.258Z,12.63
2024-04-10T07:40:53.458Z,11.25
2024-04-10T07:43:20.251Z,11.35
2024-04-10T07:45:46.747Z,11.38
2024-04-10T07:48:13.402Z,9.63
2024-04-10T07:50:40.520Z,13.60
2024-04-10T07:53:07.958Z,14.20
2024-04-10T07:55:34.761Z,13.40
2024-04-10T07:58:01.230Z,9.90
2024-04-10T08:00:28.898Z,16.67
2024-04-10T08:02:55.684Z,14.27
2024-04-10T08:05:22.440Z,15.23
2024-04-10T08:07:49.347Z,14.45
2024-04-10T08:10:15.841Z,12.95
2024-04-10T08:12:42.384Z,11.98
2024-04-10T08:15:10.072Z,13.07
2024-04-10T08:17:41.696Z,9.47
2024-04-10T08:20:08.966Z,14.75
2024-04-10T08:22:35.491Z,13.13
2024-04-10T08:25:02.137Z,10.98
2024-04-10T08:27:28.600Z,11.63
2024-04-10T08:29:55.233Z,16.40
2024-04-10T08:32:21.768Z,12.02
2024-04-10T08:34:48.515Z,11.18
2024-04-10T08:37:15.202Z,15.23
2024-04-10T08:39:41.651Z,9.32
2024-04-10T08:42:08.257Z,10.20
2024-04-10T08:44:34.810Z,14.45
2024-04-10T08:47:02.299Z,10.73
2024-04-10T08:49:30.580Z,19.02
2024-04-10T08:51:57.109Z,13.30
2024-04-10T08:54:24.744Z,18.95
2024-04-10T08:56:51.300Z,11.33
2024-04-10T08:59:17.739Z,10.70
2024-04-10T09:01:47.274Z,14.63
2024-04-10T09:04:15.262Z,10.10
2024-04-10T09:06:42.041Z,9.63
2024-04-10T09:09:09.004Z,13.23
2024-04-10T09:11:36.652Z,13.82
2024-04-10T09:14:09.859Z,12.70
2024-04-10T09:16:36.783Z,9.93
2024-04-10T09:19:09.916Z,8.13
2024-04-10T09:21:36.424Z,10.57
2024-04-10T09:24:04.864Z,13.00
2024-04-10T09:29:10.397Z,10.93
2024-04-10T09:31:38.670Z,10.88
2024-04-10T09:34:06.000Z,8.52
2024-04-10T09:36:36.747Z,7.22
2024-04-10T09:39:06.872Z,10.32
2024-04-10T09:41:35.603Z,8.55
2024-04-10T09:44:04.144Z,10.18
2024-04-10T09:48:57.658Z,6.18
2024-04-10T09:51:24.990Z,9.93
2024-04-10T09:53:51.846Z,9.30
2024-04-10T09:56:19.755Z,8.35
2024-04-10T09:58:46.484Z,7.30
2024-04-10T10:01:13.075Z,8.88
2024-04-10T10:03:40.257Z,14.80
2024-04-10T10:06:08.076Z,7.65
2024-04-10T10:08:35.376Z,7.32
2024-04-10T10:11:02.121Z,11.20
2024-04-10T10:13:29.157Z,7.20
2024-04-10T10:16:04.350Z,7.22
2024-04-10T10:18:34.273Z,7.22
2024-04-10T10:21:05.887Z,9.70
2024-04-10T10:23:36.020Z,10.32
2024-04-10T10:26:02.845Z,7.38
2024-04-10T10:28:32.715Z,11.27
2024-04-10T10:31:08.894Z,7.28
2024-04-10T10:33:35.798Z,8.13
2024-04-10T10:36:02.567Z,9.07
2024-04-10T10:38:29.228Z,10.35
2024-04-10T10:40:55.685Z,7.03
2024-04-10T10:43:22.191Z,7.20
2024-04-10T10:45:51.483Z,6.20
2024-04-10T10:48:18.115Z,6.53
2024-04-10T10:50:44.740Z,6.75
2024-04-10T10:53:13.458Z,9.20
2024-04-10T10:55:56.205Z,7.43
2024-04-10T10:58:23.332Z,6.00
2024-04-10T11:00:50.008Z,7.18
2024-04-10T11:03:27.851Z,3.83
2024-04-10T11:06:07.067Z,7.45
2024-04-10T11:08:33.704Z,8.10
2024-04-10T11:11:00.302Z,9.32
2024-04-10T11:13:26.947Z,6.85
2024-04-10T11:15:55.744Z,8.00
2024-04-10T11:18:22.664Z,8.90
2024-04-10T11:20:50.963Z,4.68
2024-04-10T11:23:18.100Z,6.95
2024-04-10T11:25:44.802Z,6.82
2024-04-10T11:28:12.008Z,9.13
2024-04-10T11:30:38.681Z,5.10
2024-04-10T11:33:08.191Z,5.88
2024-04-10T11:35:38.447Z,3.50
2024-04-10T11:38:05.438Z,4.25
2024-04-10T11:40:32.286Z,5.55
2024-04-10T11:42:58.843Z,5.03
2024-04-10T11:45:25.371Z,6.20
2024-04-10T11:47:54.351Z,8.88
2024-04-10T11:50:22.480Z,9.23
2024-04-10T11:52:49.063Z,7.35
2024-04-10T11:55:15.890Z,6.78
2024-04-10T11:57:42.453Z,8.70
2024-04-10T12:00:10.871Z,6.82
2024-04-10T12:05:07.732Z,4.95
2024-04-10T12:07:37.885Z,6.03
2024-04-10T12:10:07.531Z,3.80
2024-04-10T12:12:34.332Z,4.47
2024-04-10T12:15:01.878Z,6.85
2024-04-10T12:17:30.774Z,6.43
2024-04-10T12:19:57.410Z,5.20
2024-04-10T12:22:23.972Z,9.32
2024-04-10T12:24:50.451Z,8.90
2024-04-10T12:27:16.969Z,5.72
2024-04-10T12:29:45.327Z,7.10
2024-04-10T12:34:38.602Z,7.95
2024-04-10T12:37:23.953Z,6.43
2024-04-10T12:39:50.423Z,6.38
2024-04-10T12:42:17.300Z,5.75
2024-04-10T12:44:44.161Z,4.90
2024-04-10T12:47:10.795Z,6.22
2024-04-10T12:49:39.798Z,7.65
2024-04-10T12:52:06.440Z,7.20
2024-04-10T12:54:32.906Z,4.03
2024-04-10T12:56:59.558Z,2.97
2024-04-10T12:59:26.183Z,5.93
2024-04-10T13:01:55.102Z,3.67
2024-04-10T13:04:21.859Z,5.43
2024-04-10T13:06:48.446Z,6.38
2024-04-10T13:09:14.974Z,4.45
2024-04-10T13:11:41.557Z,6.28
2024-04-10T13:14:08.088Z,5.90
2024-04-10T13:16:34.895Z,4.03
2024-04-10T13:19:02.069Z,5.70
2024-04-10T13:21:28.620Z,4.20
2024-04-10T13:23:55.228Z,5.32
2024-04-10T13:26:21.866Z,7.40
2024-04-10T13:28:49.836Z,6.43
2024-04-10T13:31:20.756Z,4.60
2024-04-10T13:33:48.323Z,6.45
2024-04-10T13:36:16.149Z,7.10
2024-04-10T13:38:49.880Z,4.45
2024-04-10T13:41:17.307Z,5.35
2024-04-10T13:43:45.137Z,6.25
2024-04-10T13:46:13.110Z,9.35
2024-04-10T13:48:43.795Z,5.25
2024-04-10T13:51:10.976Z,5.25
2024-04-10T13:53:38.586Z,8.18
2024-04-10T13:56:06.287Z,4.23
2024-04-10T13:58:36.115Z,8.68
2024-04-10T14:01:15.316Z,2.63
2024-04-10T14:03:43.012Z,7.78
2024-04-10T14:06:10.253Z,6.05
2024-04-10T14:08:37.369Z,4.22
2024-04-10T14:11:07.001Z,5.00
2024-04-10T14:13:33.795Z,5.97
2024-04-10T14:16:00.781Z,3.15
2024-04-10T14:18:27.769Z,4.43
2024-04-10T14:21:12.216Z,6.60
2024-04-10T14:23:39.811Z,7.80
2024-04-10T14:26:11.213Z,6.60
2024-04-10T14:28:38.671Z,5.97
2024-04-10T14:31:09.029Z,8.90
2024-04-10T14:33:36.540Z,7.47
2024-04-10T14:36:03.960Z,4.70
2024-04-10T14:38:30.733Z,7.72
2024-04-10T14:40:57.496Z,6.00
2024-04-10T14:43:24.332Z,4.43
2024-04-10T14:45:51.156Z,3.55
2024-04-10T14:48:17.884Z,3.72
2024-04-10T14:50:54.449Z,6.30
2024-04-10T14:53:21.010Z,4.45
2024-04-10T14:55:48.120Z,7.65
2024-04-10T14:58:14.685Z,4.53
2024-04-10T15:00:41.350Z,7.13
2024-04-10T15:03:07.983Z,5.50
2024-04-10T15:05:34.630Z,3.65
2024-04-10T15:08:01.146Z,6.63
2024-04-10T15:10:27.830Z,4.75
2024-04-10T15:12:54.320Z,4.93
2024-04-10T15:15:20.774Z,9.25
2024-04-10T15:17:47.273Z,6.93
2024-04-10T15:20:15.541Z,6.35
2024-04-10T15:25:09.330Z,5.88
2024-04-10T15:27:36.627Z,4.78
2024-04-10T15:30:04.141Z,5.57
2024-04-10T15:32:32.388Z,10.18
2024-04-10T15:34:59.200Z,6.53
2024-04-10T15:37:27.064Z,4.65
2024-04-10T15:39:53.666Z,5.80
2024-04-10T15:42:20.291Z,5.53
2024-04-10T15:44:46.826Z,9.48
2024-04-10T15:47:13.487Z,3.20
2024-04-10T15:49:41.370Z,4.68
2024-04-10T15:52:18.213Z,3.17
2024-04-10T15:54:56.000Z,5.10
2024-04-10T15:57:24.105Z,5.47
2024-04-10T15:59:50.668Z,4.97
2024-04-10T16:02:18.810Z,6.05
2024-04-10T16:04:45.356Z,3.50
2024-04-10T16:07:11.956Z,7.13
2024-04-10T16:09:38.443Z,3.88
2024-04-10T16:12:05.640Z,4.57
2024-04-10T16:14:32.299Z,7.65
2024-04-10T16:17:00.534Z,9.20
2024-04-10T16:21:53.652Z,6.53
2024-04-10T16:24:20.223Z,4.35
2024-04-10T16:26:46.786Z,6.03
2024-04-10T16:29:13.301Z,5.95
2024-04-10T16:31:39.794Z,6.97
2024-04-10T16:34:06.520Z,7.10
2024-04-10T16:36:33.157Z,7.20
2024-04-10T16:38:59.827Z,6.25
2024-04-10T16:41:28.625Z,7.07
2024-04-10T16:43:55.098Z,7.60
2024-04-10T16:46:21.685Z,7.35
2024-04-10T16:48:49.141Z,7.75
2024-04-10T16:51:15.791Z,7.83
2024-04-10T16:53:42.495Z,5.93
2024-04-10T16:56:19.426Z,7.50
2024-04-10T16:58:46.218Z,6.22
2024-04-10T17:01:14.780Z,8.85
2024-04-10T17:03:42.549Z,4.20
2024-04-10T17:06:09.377Z,8.20
2024-04-10T17:08:36.011Z,7.93
2024-04-10T17:11:05.344Z,7.95
2024-04-10T17:13:32.073Z,6.18
2024-04-10T17:16:06.854Z,4.85
2024-04-10T17:18:52.215Z,6.22
2024-04-10T17:21:37.548Z,4.18
2024-04-10T17:24:04.258Z,5.03
2024-04-10T17:26:30.838Z,5.18
2024-04-10T17:29:01.087Z,11.00
2024-04-10T17:31:34.645Z,6.72
2024-04-10T17:34:01.365Z,6.32
2024-04-10T17:36:28.363Z,6.55
2024-04-10T17:38:54.958Z,8.10
2024-04-10T17:41:21.530Z,6.30
2024-04-10T17:43:48.116Z,10.38
2024-04-10T17:46:16.774Z,10.27
2024-04-10T17:48:43.416Z,6.82
2024-04-10T17:51:14.289Z,4.43
2024-04-10T17:53:41.322Z,6.15
2024-04-10T17:56:07.924Z,6.13
2024-04-10T17:58:34.402Z,6.15
2024-04-10T18:01:05.433Z,7.30
2024-04-10T18:03:36.386Z,8.32
2024-04-10T18:06:07.144Z,3.08
2024-04-10T18:08:34.192Z,3.78
2024-04-10T18:11:00.822Z,4.78
2024-04-10T18:13:27.488Z,7.00
2024-04-10T18:15:57.291Z,4.88
2024-04-10T18:18:23.888Z,3.17
2024-04-10T18:20:58.799Z,4.03
2024-04-10T18:23:25.403Z,3.63
2024-04-10T18:25:58.481Z,5.72
2024-04-10T18:28:24.949Z,4.97
2024-04-10T18:30:57.135Z,5.85
2024-04-10T18:33:23.710Z,4.22
2024-04-10T18:35:57.472Z,4.63
2024-04-10T18:38:24.108Z,6.00
2024-04-10T18:40:57.167Z,5.63
2024-04-10T18:43:32.859Z,5.88
2024-04-10T18:46:07.152Z,5.90
2024-04-10T18:48:35.090Z,6.88
2024-04-10T18:51:12.029Z,7.97
2024-04-10T18:53:38.687Z,3.70
2024-04-10T18:56:05.283Z,5.78
2024-04-10T18:58:31.837Z,5.85
2024-04-10T19:00:58.923Z,4.78
2024-04-10T19:03:26.508Z,8.27
2024-04-10T19:05:53.750Z,5.57
2024-04-10T19:08:20.489Z,5.75
2024-04-10T19:10:47.166Z,8.35
2024-04-10T19:13:13.729Z,7.30
2024-04-10T19:15:40.236Z,3.90
2024-04-10T19:18:06.958Z,6.05
2024-04-10T19:20:33.705Z,10.60
2024-04-10T19:23:00.179Z,6.03
2024-04-10T19:25:26.619Z,3.35
2024-04-10T19:27:53.083Z,7.47
2024-04-10T19:30:19.682Z,4.05
2024-04-10T19:32:46.309Z,8.80
2024-04-10T19:35:12.787Z,6.75
2024-04-10T19:37:41.336Z,3.35
2024-04-10T19:42:35.085Z,3.00
2024-04-10T19:45:02.096Z,5.35
2024-04-10T19:47:28.749Z,5.95
2024-04-10T19:49:55.346Z,3.97
2024-04-10T19:52:21.835Z,6.55
2024-04-10T19:54:48.295Z,7.95
2024-04-10T19:57:16.490Z,4.30
2024-04-10T19:59:43.006Z,10.13
2024-04-10T20:02:09.444Z,5.38
2024-04-10T20:04:35.962Z,5.32
2024-04-10T20:07:02.523Z,5.88
2024-04-10T20:09:29.066Z,6.40
2024-04-10T20:11:55.659Z,7.07
2024-04-10T20:14:22.349Z,6.18
2024-04-10T20:16:48.810Z,6.80
2024-04-10T20:19:15.512Z,7.47
2024-04-10T20:21:42.158Z,5.03
2024-04-10T20:24:08.796Z,7.53
2024-04-10T20:26:35.306Z,6.28
2024-04-10T20:29:01.863Z,7.70
2024-04-10T20:31:28.299Z,5.93
2024-04-10T20:33:55.124Z,9.48
2024-04-10T20:36:21.763Z,11.50
2024-04-10T20:38:48.305Z,3.83
2024-04-10T20:41:16.906Z,6.70
2024-04-10T20:46:09.851Z,4.78
2024-04-10T20:48:37.100Z,4.35
2024-04-10T20:51:14.052Z,5.82
2024-04-10T20:53:41.996Z,8.20
2024-04-10T20:56:09.574Z,5.55
2024-04-10T20:58:36.972Z,6.25
2024-04-10T21:01:10.593Z,7.95
2024-04-10T21:03:38.205Z,5.45
2024-04-10T21:06:05.630Z,8.77
2024-04-10T21:08:54.533Z,5.57
2024-04-10T21:11:41.606Z,4.35
2024-04-10T21:14:27.467Z,10.40
2024-04-10T21:17:12.771Z,7.80
2024-04-10T21:19:57.951Z,6.40
2024-04-10T21:22:43.731Z,6.15
2024-04-10T21:25:30.364Z,6.78
2024-04-10T21:28:16.259Z,9.65
2024-04-10T21:31:01.427Z,8.32
2024-04-10T21:33:47.488Z,6.55
2024-04-10T21:36:32.839Z,6.60
2024-04-10T21:39:18.683Z,5.80
2024-04-10T21:42:04.240Z,6.53
2024-04-10T21:44:49.431Z,5.18
2024-04-10T21:47:35.193Z,5.28
2024-04-10T21:50:20.359Z,4.40
2024-04-10T21:53:05.704Z,6.55
2024-04-10T21:55:51.061Z,6.65
2024-04-10T21:58:37.091Z,10.68
2024-04-10T22:01:23.309Z,4.75
2024-04-10T22:04:09.255Z,6.65
2024-04-10T22:06:54.776Z,8.15
2024-04-10T22:09:27.666Z,6.43
2024-04-10T22:11:54.899Z,6.68
2024-04-10T22:14:22.044Z,9.55
2024-04-10T22:17:07.203Z,6.53
2024-04-10T22:19:52.473Z,8.27
2024-04-10T22:22:37.699Z,9.57
2024-04-10T22:25:04.366Z,8.25
2024-04-10T22:27:30.944Z,7.90
2024-04-10T22:29:58.130Z,7.78
2024-04-10T22:32:26.129Z,5.60
2024-04-10T22:34:52.976Z,4.28
2024-04-10T22:37:19.987Z,6.43
2024-04-10T22:39:47.142Z,4.60
2024-04-10T22:42:15.276Z,5.15
2024-04-10T22:44:42.327Z,3.85
2024-04-10T22:47:08.849Z,7.57
2024-04-10T22:49:35.476Z,7.10
2024-04-10T22:52:05.074Z,4.72
2024-04-10T22:54:31.566Z,5.82
2024-04-10T22:56:58.152Z,8.98
2024-04-10T22:59:24.789Z,5.22
2024-04-10T23:01:51.378Z,5.85
2024-04-10T23:04:18.031Z,24.45
2024-04-10T23:07:20.539Z,6.20
2024-04-10T23:09:31.246Z,6.32
2024-04-10T23:11:57.904Z,5.90
2024-04-10T23:14:24.514Z,7.30
2024-04-10T23:16:51.021Z,6.32
2024-04-10T23:19:18.171Z,5.82
2024-04-10T23:21:44.811Z,4.60
2024-04-10T23:24:11.406Z,8.70
2024-04-10T23:26:37.902Z,5.80
2024-04-10T23:29:04.481Z,8.07
2024-04-10T23:31:31.276Z,6.78
2024-04-10T23:33:58.372Z,8.13
2024-04-10T23:36:25.035Z,5.22
2024-04-10T23:38:51.622Z,5.35
2024-04-10T23:41:18.249Z,8.02
2024-04-10T23:43:46.028Z,4.50
2024-04-10T23:46:12.862Z,4.07
2024-04-10T23:48:39.663Z,7.60
2024-04-10T23:51:06.616Z,7.80
2024-04-10T23:53:33.499Z,6.05
2024-04-10T23:56:00.148Z,6.95
2024-04-10T23:58:26.683Z,5.57
